sensor_id;sensor_type;location;lat;lon;timestamp;temperature;humidity
7461;DHT22;6757;52.258;12.840;2023-08-24T00:01:40;15.20;99.90
7461;DHT22;6757;52.258;12.840;2023-08-24T00:04:07;15.20;99.90
7461;DHT22;6757;52.258;12.840;2023-08-24T00:06:35;15.00;99.90
7461;DHT22;6757;52.258;12.840;2023-08-24T00:09:03;15.10;99.90
7461;DHT22;6757;52.258;12.840;2023-08-24T00:11:31;15.10;99.90
7461;DHT22;6757;52.258;12.840;2023-08-24T00:13:59;15.00;99.90
7461;DHT22;6757;52.258;12.840;2023-08-24T00:16:26;15.00;99.90
7461;DHT22;6757;52.258;12.840;2023-08-24T00:18:53;15.00;99.90
7461;DHT22;6757;52.258;12.840;2023-08-24T00:21:20;14.90;99.90
7461;DHT22;6757;52.258;12.840;2023-08-24T00:23:49;14.90;99.90
7461;DHT22;6757;52.258;12.840;2023-08-24T00:26:16;14.90;99.90
7461;DHT22;6757;52.258;12.840;2023-08-24T00:28:43;14.80;99.90
7461;DHT22;6757;52.258;12.840;2023-08-24T00:31:12;14.80;99.90
7461;DHT22;6757;52.258;12.840;2023-08-24T00:33:41;14.80;99.90
7461;DHT22;6757;52.258;12.840;2023-08-24T00:36:08;14.70;99.90
7461;DHT22;6757;52.258;12.840;2023-08-24T00:38:35;14.70;99.90
7461;DHT22;6757;52.258;12.840;2023-08-24T00:41:02;14.70;99.90
7461;DHT22;6757;52.258;12.840;2023-08-24T00:43:29;14.60;99.90
7461;DHT22;6757;52.258;12.840;2023-08-24T00:45:59;14.60;99.90
7461;DHT22;6757;52.258;12.840;2023-08-24T00:48:28;14.60;99.90
7461;DHT22;6757;52.258;12.840;2023-08-24T00:50:57;14.60;99.90
7461;DHT22;6757;52.258;12.840;2023-08-24T00:53:29;14.50;99.90
7461;DHT22;6757;52.258;12.840;2023-08-24T00:55:56;14.50;99.90
7461;DHT22;6757;52.258;12.840;2023-08-24T00:58:24;14.50;99.90
7461;DHT22;6757;52.258;12.840;2023-08-24T01:00:53;14.40;99.90
7461;DHT22;6757;52.258;12.840;2023-08-24T01:03:22;14.50;99.90
7461;DHT22;6757;52.258;12.840;2023-08-24T01:05:51;14.40;99.90
7461;DHT22;6757;52.258;12.840;2023-08-24T01:08:18;14.40;99.90
7461;DHT22;6757;52.258;12.840;2023-08-24T01:10:51;14.30;99.90
7461;DHT22;6757;52.258;12.840;2023-08-24T01:13:29;14.30;99.90
7461;DHT22;6757;52.258;12.840;2023-08-24T01:16:06;14.30;99.90
7461;DHT22;6757;52.258;12.840;2023-08-24T01:18:36;14.20;99.90
7461;DHT22;6757;52.258;12.840;2023-08-24T01:21:05;14.20;99.90
7461;DHT22;6757;52.258;12.840;2023-08-24T01:23:40;14.20;99.90
7461;DHT22;6757;52.258;12.840;2023-08-24T01:26:12;14.20;99.90
7461;DHT22;6757;52.258;12.840;2023-08-24T01:28:42;14.10;99.90
7461;DHT22;6757;52.258;12.840;2023-08-24T01:31:10;14.10;99.90
7461;DHT22;6757;52.258;12.840;2023-08-24T01:33:37;14.10;99.90
7461;DHT22;6757;52.258;12.840;2023-08-24T01:36:07;14.10;99.90
7461;DHT22;6757;52.258;12.840;2023-08-24T01:38:34;14.10;99.90
7461;DHT22;6757;52.258;12.840;2023-08-24T01:41:09;14.00;99.90
7461;DHT22;6757;52.258;12.840;2023-08-24T01:43:45;14.00;99.90
7461;DHT22;6757;52.258;12.840;2023-08-24T01:46:15;14.00;99.90
7461;DHT22;6757;52.258;12.840;2023-08-24T01:48:44;14.00;99.90
7461;DHT22;6757;52.258;12.840;2023-08-24T01:51:11;14.00;99.90
7461;DHT22;6757;52.258;12.840;2023-08-24T01:53:39;14.00;99.90
7461;DHT22;6757;52.258;12.840;2023-08-24T01:56:09;14.00;99.90
7461;DHT22;6757;52.258;12.840;2023-08-24T01:58:38;14.00;99.90
7461;DHT22;6757;52.258;12.840;2023-08-24T02:01:05;14.00;99.90
7461;DHT22;6757;52.258;12.840;2023-08-24T02:03:33;14.00;99.90
7461;DHT22;6757;52.258;12.840;2023-08-24T02:06:00;13.90;99.90
7461;DHT22;6757;52.258;12.840;2023-08-24T02:08:27;13.90;99.90
7461;DHT22;6757;52.258;12.840;2023-08-24T02:10:55;13.80;99.90
7461;DHT22;6757;52.258;12.840;2023-08-24T02:13:22;13.90;99.90
7461;DHT22;6757;52.258;12.840;2023-08-24T02:15:50;13.80;99.90
7461;DHT22;6757;52.258;12.840;2023-08-24T02:18:17;13.90;99.90
7461;DHT22;6757;52.258;12.840;2023-08-24T02:20:44;13.90;99.90
7461;DHT22;6757;52.258;12.840;2023-08-24T02:23:11;13.80;99.90
7461;DHT22;6757;52.258;12.840;2023-08-24T02:25:42;13.80;99.90
7461;DHT22;6757;52.258;12.840;2023-08-24T02:28:09;13.80;99.90
7461;DHT22;6757;52.258;12.840;2023-08-24T02:30:37;13.80;99.90
7461;DHT22;6757;52.258;12.840;2023-08-24T02:33:06;13.80;99.90
7461;DHT22;6757;52.258;12.840;2023-08-24T02:35:33;13.80;99.90
7461;DHT22;6757;52.258;12.840;2023-08-24T02:38:00;13.80;99.90
7461;DHT22;6757;52.258;12.840;2023-08-24T02:40:27;13.80;99.90
7461;DHT22;6757;52.258;12.840;2023-08-24T02:42:54;13.80;99.90
7461;DHT22;6757;52.258;12.840;2023-08-24T02:45:20;13.70;99.90
7461;DHT22;6757;52.258;12.840;2023-08-24T02:47:47;13.70;99.90
7461;DHT22;6757;52.258;12.840;2023-08-24T02:50:16;13.70;99.90
7461;DHT22;6757;52.258;12.840;2023-08-24T02:52:42;13.70;99.90
7461;DHT22;6757;52.258;12.840;2023-08-24T02:55:09;13.70;99.90
7461;DHT22;6757;52.258;12.840;2023-08-24T02:57:36;13.70;99.90
7461;DHT22;6757;52.258;12.840;2023-08-24T03:00:04;13.60;99.90
7461;DHT22;6757;52.258;12.840;2023-08-24T03:02:33;13.60;99.90
7461;DHT22;6757;52.258;12.840;2023-08-24T03:05:00;13.60;99.90
7461;DHT22;6757;52.258;12.840;2023-08-24T03:07:28;13.60;99.90
7461;DHT22;6757;52.258;12.840;2023-08-24T03:09:55;13.50;99.90
7461;DHT22;6757;52.258;12.840;2023-08-24T03:12:22;13.50;99.90
7461;DHT22;6757;52.258;12.840;2023-08-24T03:14:51;13.50;99.90
7461;DHT22;6757;52.258;12.840;2023-08-24T03:17:18;13.50;99.90
7461;DHT22;6757;52.258;12.840;2023-08-24T03:19:45;13.50;99.90
7461;DHT22;6757;52.258;12.840;2023-08-24T03:22:12;13.40;99.90
7461;DHT22;6757;52.258;12.840;2023-08-24T03:24:40;13.40;99.90
7461;DHT22;6757;52.258;12.840;2023-08-24T03:27:07;13.40;99.90
7461;DHT22;6757;52.258;12.840;2023-08-24T03:29:34;13.40;99.90
7461;DHT22;6757;52.258;12.840;2023-08-24T03:32:01;13.30;99.90
7461;DHT22;6757;52.258;12.840;2023-08-24T03:34:28;13.30;99.90
7461;DHT22;6757;52.258;12.840;2023-08-24T03:36:55;13.30;99.90
7461;DHT22;6757;52.258;12.840;2023-08-24T03:39:22;13.30;99.90
7461;DHT22;6757;52.258;12.840;2023-08-24T03:41:50;13.30;99.90
7461;DHT22;6757;52.258;12.840;2023-08-24T03:44:17;13.20;99.90
7461;DHT22;6757;52.258;12.840;2023-08-24T03:46:44;13.20;99.90
7461;DHT22;6757;52.258;12.840;2023-08-24T03:49:11;13.20;99.90
7461;DHT22;6757;52.258;12.840;2023-08-24T03:51:37;13.10;99.90
7461;DHT22;6757;52.258;12.840;2023-08-24T03:54:04;13.10;99.90
7461;DHT22;6757;52.258;12.840;2023-08-24T03:56:31;13.20;99.90
7461;DHT22;6757;52.258;12.840;2023-08-24T03:59:00;13.10;99.90
7461;DHT22;6757;52.258;12.840;2023-08-24T04:01:27;13.10;99.90
7461;DHT22;6757;52.258;12.840;2023-08-24T04:03:53;13.10;99.90
7461;DHT22;6757;52.258;12.840;2023-08-24T04:06:20;13.00;99.90
7461;DHT22;6757;52.258;12.840;2023-08-24T04:08:47;13.10;99.90
7461;DHT22;6757;52.258;12.840;2023-08-24T04:11:14;13.20;99.90
7461;DHT22;6757;52.258;12.840;2023-08-24T04:13:41;13.00;99.90
7461;DHT22;6757;52.258;12.840;2023-08-24T04:16:09;13.00;99.90
7461;DHT22;6757;52.258;12.840;2023-08-24T04:18:36;13.00;99.90
7461;DHT22;6757;52.258;12.840;2023-08-24T04:21:04;13.00;99.90
7461;DHT22;6757;52.258;12.840;2023-08-24T04:23:31;13.00;99.90
7461;DHT22;6757;52.258;12.840;2023-08-24T04:25:58;13.00;99.90
7461;DHT22;6757;52.258;12.840;2023-08-24T04:28:25;12.90;99.90
7461;DHT22;6757;52.258;12.840;2023-08-24T04:30:53;13.00;99.90
7461;DHT22;6757;52.258;12.840;2023-08-24T04:33:23;13.00;99.90
7461;DHT22;6757;52.258;12.840;2023-08-24T04:35:50;13.00;99.90
7461;DHT22;6757;52.258;12.840;2023-08-24T04:38:17;13.00;99.90
7461;DHT22;6757;52.258;12.840;2023-08-24T04:40:47;13.00;99.90
7461;DHT22;6757;52.258;12.840;2023-08-24T04:43:15;13.00;99.90
7461;DHT22;6757;52.258;12.840;2023-08-24T04:45:42;13.00;99.90
7461;DHT22;6757;52.258;12.840;2023-08-24T04:48:09;13.00;99.90
7461;DHT22;6757;52.258;12.840;2023-08-24T04:50:37;13.00;99.90
7461;DHT22;6757;52.258;12.840;2023-08-24T04:53:04;13.00;99.90
7461;DHT22;6757;52.258;12.840;2023-08-24T04:55:31;13.00;99.90
7461;DHT22;6757;52.258;12.840;2023-08-24T04:57:58;13.00;99.90
7461;DHT22;6757;52.258;12.840;2023-08-24T05:00:25;13.00;99.90
7461;DHT22;6757;52.258;12.840;2023-08-24T05:02:52;13.00;99.90
7461;DHT22;6757;52.258;12.840;2023-08-24T05:05:19;13.10;99.90
7461;DHT22;6757;52.258;12.840;2023-08-24T05:07:48;13.10;99.90
7461;DHT22;6757;52.258;12.840;2023-08-24T05:10:15;13.10;99.90
7461;DHT22;6757;52.258;12.840;2023-08-24T05:12:42;13.20;99.90
7461;DHT22;6757;52.258;12.840;2023-08-24T05:15:09;13.20;99.90
7461;DHT22;6757;52.258;12.840;2023-08-24T05:17:36;13.20;99.90
7461;DHT22;6757;52.258;12.840;2023-08-24T05:20:04;13.30;99.90
7461;DHT22;6757;52.258;12.840;2023-08-24T05:22:33;13.30;99.90
7461;DHT22;6757;52.258;12.840;2023-08-24T05:25:02;13.40;99.90
7461;DHT22;6757;52.258;12.840;2023-08-24T05:27:29;13.50;99.90
7461;DHT22;6757;52.258;12.840;2023-08-24T05:29:57;13.60;99.90
7461;DHT22;6757;52.258;12.840;2023-08-24T05:32:24;13.60;99.90
7461;DHT22;6757;52.258;12.840;2023-08-24T05:34:51;13.70;99.90
7461;DHT22;6757;52.258;12.840;2023-08-24T05:37:17;13.70;99.90
7461;DHT22;6757;52.258;12.840;2023-08-24T05:39:44;13.80;99.90
7461;DHT22;6757;52.258;12.840;2023-08-24T05:42:13;13.80;99.90
7461;DHT22;6757;52.258;12.840;2023-08-24T05:44:40;13.90;99.90
7461;DHT22;6757;52.258;12.840;2023-08-24T05:47:06;14.00;99.90
7461;DHT22;6757;52.258;12.840;2023-08-24T05:49:33;14.00;99.90
7461;DHT22;6757;52.258;12.840;2023-08-24T05:52:00;14.10;99.90
7461;DHT22;6757;52.258;12.840;2023-08-24T05:54:27;14.20;99.90
7461;DHT22;6757;52.258;12.840;2023-08-24T05:56:54;14.20;99.90
7461;DHT22;6757;52.258;12.840;2023-08-24T05:59:27;14.30;99.90
7461;DHT22;6757;52.258;12.840;2023-08-24T06:01:54;14.40;99.90
7461;DHT22;6757;52.258;12.840;2023-08-24T06:04:21;14.50;99.90
7461;DHT22;6757;52.258;12.840;2023-08-24T06:06:48;14.60;99.90
7461;DHT22;6757;52.258;12.840;2023-08-24T06:09:15;14.70;99.90
7461;DHT22;6757;52.258;12.840;2023-08-24T06:11:42;14.80;99.90
7461;DHT22;6757;52.258;12.840;2023-08-24T06:14:08;14.90;99.90
7461;DHT22;6757;52.258;12.840;2023-08-24T06:16:37;15.10;99.90
7461;DHT22;6757;52.258;12.840;2023-08-24T06:19:04;15.20;99.90
7461;DHT22;6757;52.258;12.840;2023-08-24T06:21:30;15.40;99.90
7461;DHT22;6757;52.258;12.840;2023-08-24T06:23:57;15.60;99.90
7461;DHT22;6757;52.258;12.840;2023-08-24T06:26:26;15.90;99.90
7461;DHT22;6757;52.258;12.840;2023-08-24T06:28:53;16.10;99.90
7461;DHT22;6757;52.258;12.840;2023-08-24T06:31:21;16.30;99.90
7461;DHT22;6757;52.258;12.840;2023-08-24T06:33:50;16.60;99.90
7461;DHT22;6757;52.258;12.840;2023-08-24T06:36:17;17.00;99.90
7461;DHT22;6757;52.258;12.840;2023-08-24T06:38:43;17.10;99.90
7461;DHT22;6757;52.258;12.840;2023-08-24T06:41:10;17.30;99.90
7461;DHT22;6757;52.258;12.840;2023-08-24T06:43:37;17.50;99.90
7461;DHT22;6757;52.258;12.840;2023-08-24T06:46:04;17.70;99.90
7461;DHT22;6757;52.258;12.840;2023-08-24T06:48:33;18.00;99.90
7461;DHT22;6757;52.258;12.840;2023-08-24T06:51:01;18.20;99.90
7461;DHT22;6757;52.258;12.840;2023-08-24T06:53:28;18.40;99.90
7461;DHT22;6757;52.258;12.840;2023-08-24T06:55:56;18.60;99.90
7461;DHT22;6757;52.258;12.840;2023-08-24T06:58:23;18.80;99.90
7461;DHT22;6757;52.258;12.840;2023-08-24T07:00:50;18.90;99.90
7461;DHT22;6757;52.258;12.840;2023-08-24T07:03:17;19.10;99.90
7461;DHT22;6757;52.258;12.840;2023-08-24T07:05:44;19.20;99.90
7461;DHT22;6757;52.258;12.840;2023-08-24T07:08:13;19.40;99.90
7461;DHT22;6757;52.258;12.840;2023-08-24T07:10:40;19.50;99.90
7461;DHT22;6757;52.258;12.840;2023-08-24T07:13:07;19.70;99.90
7461;DHT22;6757;52.258;12.840;2023-08-24T07:15:34;19.80;99.90
7461;DHT22;6757;52.258;12.840;2023-08-24T07:18:02;19.90;99.90
7461;DHT22;6757;52.258;12.840;2023-08-24T07:20:31;20.10;99.90
7461;DHT22;6757;52.258;12.840;2023-08-24T07:22:58;20.20;99.90
7461;DHT22;6757;52.258;12.840;2023-08-24T07:25:27;20.30;99.90
7461;DHT22;6757;52.258;12.840;2023-08-24T07:27:54;20.50;99.90
7461;DHT22;6757;52.258;12.840;2023-08-24T07:30:24;20.60;99.90
7461;DHT22;6757;52.258;12.840;2023-08-24T07:32:51;20.70;99.90
7461;DHT22;6757;52.258;12.840;2023-08-24T07:35:18;20.80;99.90
7461;DHT22;6757;52.258;12.840;2023-08-24T07:37:46;21.00;99.90
7461;DHT22;6757;52.258;12.840;2023-08-24T07:40:13;21.10;99.90
7461;DHT22;6757;52.258;12.840;2023-08-24T07:42:45;21.20;99.90
7461;DHT22;6757;52.258;12.840;2023-08-24T07:45:13;21.30;99.90
7461;DHT22;6757;52.258;12.840;2023-08-24T07:47:40;21.50;99.90
7461;DHT22;6757;52.258;12.840;2023-08-24T07:50:08;21.60;99.90
7461;DHT22;6757;52.258;12.840;2023-08-24T07:52:37;21.80;99.90
7461;DHT22;6757;52.258;12.840;2023-08-24T07:55:05;21.90;99.90
7461;DHT22;6757;52.258;12.840;2023-08-24T07:57:32;22.10;99.90
7461;DHT22;6757;52.258;12.840;2023-08-24T08:00:01;22.30;99.90
7461;DHT22;6757;52.258;12.840;2023-08-24T08:02:29;22.50;99.90
7461;DHT22;6757;52.258;12.840;2023-08-24T08:04:58;22.60;99.90
7461;DHT22;6757;52.258;12.840;2023-08-24T08:07:26;22.80;99.90
7461;DHT22;6757;52.258;12.840;2023-08-24T08:09:54;22.90;99.90
7461;DHT22;6757;52.258;12.840;2023-08-24T08:12:22;23.10;99.90
7461;DHT22;6757;52.258;12.840;2023-08-24T08:14:49;23.10;99.90
7461;DHT22;6757;52.258;12.840;2023-08-24T08:17:17;23.20;99.90
7461;DHT22;6757;52.258;12.840;2023-08-24T08:19:44;23.30;99.90
7461;DHT22;6757;52.258;12.840;2023-08-24T08:22:12;23.30;99.90
7461;DHT22;6757;52.258;12.840;2023-08-24T08:24:39;23.40;99.90
7461;DHT22;6757;52.258;12.840;2023-08-24T08:27:06;23.40;99.90
7461;DHT22;6757;52.258;12.840;2023-08-24T08:29:33;23.50;99.90
7461;DHT22;6757;52.258;12.840;2023-08-24T08:32:00;23.50;99.90
7461;DHT22;6757;52.258;12.840;2023-08-24T08:34:28;23.60;99.90
7461;DHT22;6757;52.258;12.840;2023-08-24T08:36:55;23.70;99.90
7461;DHT22;6757;52.258;12.840;2023-08-24T08:39:22;23.70;99.90
7461;DHT22;6757;52.258;12.840;2023-08-24T08:41:49;23.80;99.90
7461;DHT22;6757;52.258;12.840;2023-08-24T08:44:17;23.80;99.90
7461;DHT22;6757;52.258;12.840;2023-08-24T08:46:45;23.90;99.90
7461;DHT22;6757;52.258;12.840;2023-08-24T08:49:13;24.00;99.90
7461;DHT22;6757;52.258;12.840;2023-08-24T08:51:43;24.00;99.90
7461;DHT22;6757;52.258;12.840;2023-08-24T08:54:11;24.00;99.90
7461;DHT22;6757;52.258;12.840;2023-08-24T08:56:38;24.00;99.90
7461;DHT22;6757;52.258;12.840;2023-08-24T08:59:07;24.10;99.90
7461;DHT22;6757;52.258;12.840;2023-08-24T09:01:36;24.10;99.90
7461;DHT22;6757;52.258;12.840;2023-08-24T09:04:04;24.10;99.90
7461;DHT22;6757;52.258;12.840;2023-08-24T09:06:33;24.10;99.90
7461;DHT22;6757;52.258;12.840;2023-08-24T09:09:05;24.10;99.90
7461;DHT22;6757;52.258;12.840;2023-08-24T09:11:33;24.10;99.90
7461;DHT22;6757;52.258;12.840;2023-08-24T09:14:00;24.10;99.90
7461;DHT22;6757;52.258;12.840;2023-08-24T09:16:29;24.10;99.90
7461;DHT22;6757;52.258;12.840;2023-08-24T09:18:56;24.10;99.90
7461;DHT22;6757;52.258;12.840;2023-08-24T09:21:23;24.10;99.90
7461;DHT22;6757;52.258;12.840;2023-08-24T09:23:53;24.10;99.90
7461;DHT22;6757;52.258;12.840;2023-08-24T09:26:28;24.00;99.90
7461;DHT22;6757;52.258;12.840;2023-08-24T09:28:56;24.00;99.90
7461;DHT22;6757;52.258;12.840;2023-08-24T09:31:23;23.90;99.90
7461;DHT22;6757;52.258;12.840;2023-08-24T09:33:50;23.90;99.90
7461;DHT22;6757;52.258;12.840;2023-08-24T09:36:26;23.90;99.90
7461;DHT22;6757;52.258;12.840;2023-08-24T09:38:56;23.90;99.90
7461;DHT22;6757;52.258;12.840;2023-08-24T09:41:23;23.80;99.90
7461;DHT22;6757;52.258;12.840;2023-08-24T09:43:51;23.80;99.90
7461;DHT22;6757;52.258;12.840;2023-08-24T09:46:19;23.80;99.90
7461;DHT22;6757;52.258;12.840;2023-08-24T09:48:53;23.70;99.90
7461;DHT22;6757;52.258;12.840;2023-08-24T09:51:22;23.80;99.90
7461;DHT22;6757;52.258;12.840;2023-08-24T09:53:49;23.70;99.90
7461;DHT22;6757;52.258;12.840;2023-08-24T09:56:16;23.80;99.90
7461;DHT22;6757;52.258;12.840;2023-08-24T09:58:45;23.80;99.90
7461;DHT22;6757;52.258;12.840;2023-08-24T10:01:15;23.80;99.90
7461;DHT22;6757;52.258;12.840;2023-08-24T10:03:43;23.90;99.90
7461;DHT22;6757;52.258;12.840;2023-08-24T10:06:12;24.00;99.90
7461;DHT22;6757;52.258;12.840;2023-08-24T10:08:44;24.00;99.90
7461;DHT22;6757;52.258;12.840;2023-08-24T10:11:18;24.10;99.90
7461;DHT22;6757;52.258;12.840;2023-08-24T10:13:52;24.10;99.90
7461;DHT22;6757;52.258;12.840;2023-08-24T10:16:23;24.20;99.90
7461;DHT22;6757;52.258;12.840;2023-08-24T10:18:51;24.20;99.90
7461;DHT22;6757;52.258;12.840;2023-08-24T10:21:19;24.30;99.90
7461;DHT22;6757;52.258;12.840;2023-08-24T10:23:46;24.30;99.90
7461;DHT22;6757;52.258;12.840;2023-08-24T10:26:14;24.40;99.90
7461;DHT22;6757;52.258;12.840;2023-08-24T10:28:43;24.40;99.90
7461;DHT22;6757;52.258;12.840;2023-08-24T10:31:11;24.50;99.90
7461;DHT22;6757;52.258;12.840;2023-08-24T10:33:40;24.40;99.90
7461;DHT22;6757;52.258;12.840;2023-08-24T10:36:09;24.50;99.90
7461;DHT22;6757;52.258;12.840;2023-08-24T10:38:41;24.60;99.90
7461;DHT22;6757;52.258;12.840;2023-08-24T10:41:09;24.60;99.90
7461;DHT22;6757;52.258;12.840;2023-08-24T10:43:39;24.70;99.90
7461;DHT22;6757;52.258;12.840;2023-08-24T10:46:12;24.70;99.90
7461;DHT22;6757;52.258;12.840;2023-08-24T10:49:03;24.80;99.90
7461;DHT22;6757;52.258;12.840;2023-08-24T10:51:30;24.80;99.90
7461;DHT22;6757;52.258;12.840;2023-08-24T10:53:58;24.90;99.90
7461;DHT22;6757;52.258;12.840;2023-08-24T10:56:33;25.00;99.90
7461;DHT22;6757;52.258;12.840;2023-08-24T10:59:14;25.00;99.90
7461;DHT22;6757;52.258;12.840;2023-08-24T11:01:42;25.20;99.90
7461;DHT22;6757;52.258;12.840;2023-08-24T11:04:12;25.30;99.90
7461;DHT22;6757;52.258;12.840;2023-08-24T11:06:52;25.50;99.90
7461;DHT22;6757;52.258;12.840;2023-08-24T11:09:20;25.60;99.90
7461;DHT22;6757;52.258;12.840;2023-08-24T11:11:57;25.80;99.90
7461;DHT22;6757;52.258;12.840;2023-08-24T11:14:26;25.90;99.90
7461;DHT22;6757;52.258;12.840;2023-08-24T11:16:57;26.00;99.90
7461;DHT22;6757;52.258;12.840;2023-08-24T11:19:26;26.10;99.90
7461;DHT22;6757;52.258;12.840;2023-08-24T11:21:55;26.20;99.90
7461;DHT22;6757;52.258;12.840;2023-08-24T11:24:22;26.20;99.90
7461;DHT22;6757;52.258;12.840;2023-08-24T11:26:49;26.30;99.90
7461;DHT22;6757;52.258;12.840;2023-08-24T11:29:17;26.30;99.90
7461;DHT22;6757;52.258;12.840;2023-08-24T11:31:44;26.40;99.90
7461;DHT22;6757;52.258;12.840;2023-08-24T11:34:14;26.50;99.90
7461;DHT22;6757;52.258;12.840;2023-08-24T11:36:46;26.50;99.90
7461;DHT22;6757;52.258;12.840;2023-08-24T11:39:15;26.60;99.90
7461;DHT22;6757;52.258;12.840;2023-08-24T11:41:56;26.70;99.90
7461;DHT22;6757;52.258;12.840;2023-08-24T11:44:24;26.70;99.90
7461;DHT22;6757;52.258;12.840;2023-08-24T11:46:51;26.90;99.90
7461;DHT22;6757;52.258;12.840;2023-08-24T11:49:18;27.00;99.90
7461;DHT22;6757;52.258;12.840;2023-08-24T11:51:46;27.20;99.90
7461;DHT22;6757;52.258;12.840;2023-08-24T11:54:16;27.30;99.90
7461;DHT22;6757;52.258;12.840;2023-08-24T11:56:43;27.50;99.90
7461;DHT22;6757;52.258;12.840;2023-08-24T11:59:12;27.60;99.90
7461;DHT22;6757;52.258;12.840;2023-08-24T12:01:39;27.80;99.90
7461;DHT22;6757;52.258;12.840;2023-08-24T12:04:07;27.90;99.90
7461;DHT22;6757;52.258;12.840;2023-08-24T12:06:34;28.10;99.90
7461;DHT22;6757;52.258;12.840;2023-08-24T12:09:05;28.30;99.90
7461;DHT22;6757;52.258;12.840;2023-08-24T12:11:35;28.50;99.90
7461;DHT22;6757;52.258;12.840;2023-08-24T12:14:04;28.60;99.40
7461;DHT22;6757;52.258;12.840;2023-08-24T12:16:35;28.90;98.80
7461;DHT22;6757;52.258;12.840;2023-08-24T12:19:02;29.10;98.30
7461;DHT22;6757;52.258;12.840;2023-08-24T12:21:33;29.40;97.60
7461;DHT22;6757;52.258;12.840;2023-08-24T12:24:03;29.70;96.90
7461;DHT22;6757;52.258;12.840;2023-08-24T12:26:31;30.10;95.70
7461;DHT22;6757;52.258;12.840;2023-08-24T12:29:01;30.50;94.40
7461;DHT22;6757;52.258;12.840;2023-08-24T12:31:29;30.80;93.40
7461;DHT22;6757;52.258;12.840;2023-08-24T12:34:01;31.10;92.70
7461;DHT22;6757;52.258;12.840;2023-08-24T12:36:32;31.30;92.10
7461;DHT22;6757;52.258;12.840;2023-08-24T12:38:59;31.40;91.00
7461;DHT22;6757;52.258;12.840;2023-08-24T12:41:27;31.40;88.10
7461;DHT22;6757;52.258;12.840;2023-08-24T12:43:54;31.20;86.30
7461;DHT22;6757;52.258;12.840;2023-08-24T12:46:21;30.90;84.50
7461;DHT22;6757;52.258;12.840;2023-08-24T12:48:49;30.70;83.60
7461;DHT22;6757;52.258;12.840;2023-08-24T12:51:16;30.50;83.10
7461;DHT22;6757;52.258;12.840;2023-08-24T12:53:43;30.40;83.30
7461;DHT22;6757;52.258;12.840;2023-08-24T12:56:10;30.20;83.90
7461;DHT22;6757;52.258;12.840;2023-08-24T12:58:38;30.00;84.40
7461;DHT22;6757;52.258;12.840;2023-08-24T13:01:05;30.20;85.00
7461;DHT22;6757;52.258;12.840;2023-08-24T13:03:33;30.20;85.20
7461;DHT22;6757;52.258;12.840;2023-08-24T13:06:01;30.20;85.50
7461;DHT22;6757;52.258;12.840;2023-08-24T13:08:30;30.10;86.20
7461;DHT22;6757;52.258;12.840;2023-08-24T13:10:57;30.10;85.60
7461;DHT22;6757;52.258;12.840;2023-08-24T13:13:23;30.10;85.40
7461;DHT22;6757;52.258;12.840;2023-08-24T13:15:52;30.10;85.00
7461;DHT22;6757;52.258;12.840;2023-08-24T13:18:19;30.00;84.80
7461;DHT22;6757;52.258;12.840;2023-08-24T13:20:45;30.00;84.50
7461;DHT22;6757;52.258;12.840;2023-08-24T13:23:12;29.90;85.20
7461;DHT22;6757;52.258;12.840;2023-08-24T13:25:40;30.00;84.50
7461;DHT22;6757;52.258;12.840;2023-08-24T13:28:07;30.00;84.40
7461;DHT22;6757;52.258;12.840;2023-08-24T13:30:34;30.00;84.40
7461;DHT22;6757;52.258;12.840;2023-08-24T13:33:02;30.20;84.40
7461;DHT22;6757;52.258;12.840;2023-08-24T13:35:29;30.40;84.30
7461;DHT22;6757;52.258;12.840;2023-08-24T13:37:56;30.70;83.50
7461;DHT22;6757;52.258;12.840;2023-08-24T13:40:23;31.10;82.10
7461;DHT22;6757;52.258;12.840;2023-08-24T13:42:51;31.50;80.80
7461;DHT22;6757;52.258;12.840;2023-08-24T13:45:17;31.90;79.90
7461;DHT22;6757;52.258;12.840;2023-08-24T13:47:46;32.40;78.20
7461;DHT22;6757;52.258;12.840;2023-08-24T13:50:14;32.70;76.50
7461;DHT22;6757;52.258;12.840;2023-08-24T13:52:41;33.00;75.20
7461;DHT22;6757;52.258;12.840;2023-08-24T13:55:08;33.20;74.40
7461;DHT22;6757;52.258;12.840;2023-08-24T13:57:35;33.50;73.60
7461;DHT22;6757;52.258;12.840;2023-08-24T14:00:03;33.70;72.90
7461;DHT22;6757;52.258;12.840;2023-08-24T14:02:34;33.90;71.60
7461;DHT22;6757;52.258;12.840;2023-08-24T14:05:00;34.20;70.50
7461;DHT22;6757;52.258;12.840;2023-08-24T14:07:29;34.50;69.30
7461;DHT22;6757;52.258;12.840;2023-08-24T14:09:56;34.60;67.40
7461;DHT22;6757;52.258;12.840;2023-08-24T14:12:22;34.60;66.70
7461;DHT22;6757;52.258;12.840;2023-08-24T14:14:49;34.80;65.80
7461;DHT22;6757;52.258;12.840;2023-08-24T14:17:16;34.90;65.00
7461;DHT22;6757;52.258;12.840;2023-08-24T14:19:43;34.90;64.40
7461;DHT22;6757;52.258;12.840;2023-08-24T14:22:10;35.00;64.10
7461;DHT22;6757;52.258;12.840;2023-08-24T14:24:38;35.00;63.80
7461;DHT22;6757;52.258;12.840;2023-08-24T14:27:05;35.30;63.60
7461;DHT22;6757;52.258;12.840;2023-08-24T14:29:32;35.50;63.60
7461;DHT22;6757;52.258;12.840;2023-08-24T14:31:59;35.50;62.80
7461;DHT22;6757;52.258;12.840;2023-08-24T14:34:25;35.30;62.40
7461;DHT22;6757;52.258;12.840;2023-08-24T14:36:52;35.00;62.30
7461;DHT22;6757;52.258;12.840;2023-08-24T14:39:19;35.00;62.90
7461;DHT22;6757;52.258;12.840;2023-08-24T14:41:47;34.60;63.10
7461;DHT22;6757;52.258;12.840;2023-08-24T14:44:14;34.50;63.50
7461;DHT22;6757;52.258;12.840;2023-08-24T14:46:41;34.30;63.60
7461;DHT22;6757;52.258;12.840;2023-08-24T14:49:09;34.30;63.50
7461;DHT22;6757;52.258;12.840;2023-08-24T14:51:36;34.30;63.30
7461;DHT22;6757;52.258;12.840;2023-08-24T14:54:03;34.40;63.50
7461;DHT22;6757;52.258;12.840;2023-08-24T14:56:31;34.60;63.30
7461;DHT22;6757;52.258;12.840;2023-08-24T14:58:59;34.90;62.70
7461;DHT22;6757;52.258;12.840;2023-08-24T15:01:26;35.30;62.30
7461;DHT22;6757;52.258;12.840;2023-08-24T15:03:53;35.60;61.80
7461;DHT22;6757;52.258;12.840;2023-08-24T15:06:20;35.80;61.10
7461;DHT22;6757;52.258;12.840;2023-08-24T15:08:46;35.90;60.70
7461;DHT22;6757;52.258;12.840;2023-08-24T15:11:14;36.00;60.20
7461;DHT22;6757;52.258;12.840;2023-08-24T15:13:41;35.80;60.00
7461;DHT22;6757;52.258;12.840;2023-08-24T15:16:10;36.10;60.00
7461;DHT22;6757;52.258;12.840;2023-08-24T15:18:37;36.40;59.80
7461;DHT22;6757;52.258;12.840;2023-08-24T15:21:04;36.60;60.10
7461;DHT22;6757;52.258;12.840;2023-08-24T15:23:31;36.70;59.40
7461;DHT22;6757;52.258;12.840;2023-08-24T15:25:59;36.80;58.90
7461;DHT22;6757;52.258;12.840;2023-08-24T15:28:34;36.60;58.60
7461;DHT22;6757;52.258;12.840;2023-08-24T15:31:03;36.30;58.30
7461;DHT22;6757;52.258;12.840;2023-08-24T15:33:31;35.90;58.50
7461;DHT22;6757;52.258;12.840;2023-08-24T15:35:58;35.50;58.70
7461;DHT22;6757;52.258;12.840;2023-08-24T15:38:25;35.10;59.30
7461;DHT22;6757;52.258;12.840;2023-08-24T15:40:53;34.50;59.90
7461;DHT22;6757;52.258;12.840;2023-08-24T15:43:20;34.10;60.60
7461;DHT22;6757;52.258;12.840;2023-08-24T15:45:49;33.70;61.20
7461;DHT22;6757;52.258;12.840;2023-08-24T15:48:17;33.50;61.80
7461;DHT22;6757;52.258;12.840;2023-08-24T15:50:45;33.30;62.10